sensor_id;sensor_type;location;lat;lon;timestamp;temperature;humidity
23156;DHT22;11746;50.876;4.246;2023-06-14T00:02:08;22.80;59.90
23156;DHT22;11746;50.876;4.246;2023-06-14T00:04:35;22.80;60.10
23156;DHT22;11746;50.876;4.246;2023-06-14T00:07:01;22.90;60.00
23156;DHT22;11746;50.876;4.246;2023-06-14T00:09:27;22.90;59.90
23156;DHT22;11746;50.876;4.246;2023-06-14T00:11:53;22.80;60.10
23156;DHT22;11746;50.876;4.246;2023-06-14T00:14:19;22.80;60.10
23156;DHT22;11746;50.876;4.246;2023-06-14T00:16:45;22.70;60.10
23156;DHT22;11746;50.876;4.246;2023-06-14T00:19:11;22.60;60.00
23156;DHT22;11746;50.876;4.246;2023-06-14T00:21:37;22.50;60.00
23156;DHT22;11746;50.876;4.246;2023-06-14T00:24:04;22.50;60.30
23156;DHT22;11746;50.876;4.246;2023-06-14T00:26:30;22.50;60.40
23156;DHT22;11746;50.876;4.246;2023-06-14T00:28:56;22.50;60.80
23156;DHT22;11746;50.876;4.246;2023-06-14T00:31:23;22.60;60.10
23156;DHT22;11746;50.876;4.246;2023-06-14T00:33:49;22.50;60.40
23156;DHT22;11746;50.876;4.246;2023-06-14T00:36:14;22.50;60.50
23156;DHT22;11746;50.876;4.246;2023-06-14T00:38:40;22.50;60.50
23156;DHT22;11746;50.876;4.246;2023-06-14T00:41:06;22.50;60.50
23156;DHT22;11746;50.876;4.246;2023-06-14T00:43:32;22.40;60.50
23156;DHT22;11746;50.876;4.246;2023-06-14T00:46:00;22.50;60.40
23156;DHT22;11746;50.876;4.246;2023-06-14T00:48:27;22.30;60.70
23156;DHT22;11746;50.876;4.246;2023-06-14T00:50:54;22.30;61.10
23156;DHT22;11746;50.876;4.246;2023-06-14T00:53:20;22.30;60.90
23156;DHT22;11746;50.876;4.246;2023-06-14T00:55:48;22.30;61.00
23156;DHT22;11746;50.876;4.246;2023-06-14T00:58:15;22.20;61.20
23156;DHT22;11746;50.876;4.246;2023-06-14T01:00:42;22.30;61.10
23156;DHT22;11746;50.876;4.246;2023-06-14T01:03:07;22.30;61.00
23156;DHT22;11746;50.876;4.246;2023-06-14T01:05:38;22.20;61.10
23156;DHT22;11746;50.876;4.246;2023-06-14T01:08:27;22.10;61.20
23156;DHT22;11746;50.876;4.246;2023-06-14T01:11:02;22.00;61.70
23156;DHT22;11746;50.876;4.246;2023-06-14T01:13:36;22.00;61.80
23156;DHT22;11746;50.876;4.246;2023-06-14T01:16:05;21.80;62.20
23156;DHT22;11746;50.876;4.246;2023-06-14T01:18:31;21.80;62.30
23156;DHT22;11746;50.876;4.246;2023-06-14T01:20:57;21.80;62.20
23156;DHT22;11746;50.876;4.246;2023-06-14T01:23:24;21.90;62.60
23156;DHT22;11746;50.876;4.246;2023-06-14T01:25:51;21.80;61.90
23156;DHT22;11746;50.876;4.246;2023-06-14T01:28:21;21.70;62.20
23156;DHT22;11746;50.876;4.246;2023-06-14T01:30:53;21.60;62.70
23156;DHT22;11746;50.876;4.246;2023-06-14T01:33:25;21.50;63.10
23156;DHT22;11746;50.876;4.246;2023-06-14T01:35:53;21.50;63.20
23156;DHT22;11746;50.876;4.246;2023-06-14T01:38:22;21.50;63.10
23156;DHT22;11746;50.876;4.246;2023-06-14T01:40:50;21.50;63.40
23156;DHT22;11746;50.876;4.246;2023-06-14T01:43:18;21.40;63.50
23156;DHT22;11746;50.876;4.246;2023-06-14T01:45:46;21.40;63.70
23156;DHT22;11746;50.876;4.246;2023-06-14T01:48:13;21.20;64.00
23156;DHT22;11746;50.876;4.246;2023-06-14T01:50:40;21.00;64.70
23156;DHT22;11746;50.876;4.246;2023-06-14T01:53:10;20.90;65.40
23156;DHT22;11746;50.876;4.246;2023-06-14T01:55:36;20.90;65.80
23156;DHT22;11746;50.876;4.246;2023-06-14T01:58:08;20.70;66.40
23156;DHT22;11746;50.876;4.246;2023-06-14T02:00:34;20.60;66.80
23156;DHT22;11746;50.876;4.246;2023-06-14T02:03:01;20.60;66.90
23156;DHT22;11746;50.876;4.246;2023-06-14T02:05:30;20.60;67.00
23156;DHT22;11746;50.876;4.246;2023-06-14T02:07:56;20.60;67.50
23156;DHT22;11746;50.876;4.246;2023-06-14T02:10:22;20.60;67.50
23156;DHT22;11746;50.876;4.246;2023-06-14T02:12:48;20.50;67.80
23156;DHT22;11746;50.876;4.246;2023-06-14T02:15:14;20.60;67.70
23156;DHT22;11746;50.876;4.246;2023-06-14T02:17:44;20.60;67.60
23156;DHT22;11746;50.876;4.246;2023-06-14T02:20:10;20.70;67.90
23156;DHT22;11746;50.876;4.246;2023-06-14T02:22:36;20.70;67.90
23156;DHT22;11746;50.876;4.246;2023-06-14T02:25:02;20.60;68.40
23156;DHT22;11746;50.876;4.246;2023-06-14T02:27:28;20.60;68.70
23156;DHT22;11746;50.876;4.246;2023-06-14T02:29:54;20.50;68.70
23156;DHT22;11746;50.876;4.246;2023-06-14T02:32:20;20.50;69.10
23156;DHT22;11746;50.876;4.246;2023-06-14T02:34:46;20.60;69.20
23156;DHT22;11746;50.876;4.246;2023-06-14T02:37:15;20.50;69.20
23156;DHT22;11746;50.876;4.246;2023-06-14T02:39:41;20.40;69.40
23156;DHT22;11746;50.876;4.246;2023-06-14T02:42:07;20.30;69.70
23156;DHT22;11746;50.876;4.246;2023-06-14T02:44:33;20.40;69.90
23156;DHT22;11746;50.876;4.246;2023-06-14T02:46:59;20.30;69.90
23156;DHT22;11746;50.876;4.246;2023-06-14T02:49:26;20.30;70.30
23156;DHT22;11746;50.876;4.246;2023-06-14T02:51:52;20.20;70.70
23156;DHT22;11746;50.876;4.246;2023-06-14T02:54:18;20.10;71.10
23156;DHT22;11746;50.876;4.246;2023-06-14T02:56:44;20.10;71.30
23156;DHT22;11746;50.876;4.246;2023-06-14T02:59:10;20.30;71.10
23156;DHT22;11746;50.876;4.246;2023-06-14T03:01:36;20.30;71.30
23156;DHT22;11746;50.876;4.246;2023-06-14T03:04:04;20.20;71.60
23156;DHT22;11746;50.876;4.246;2023-06-14T03:06:30;20.20;71.80
23156;DHT22;11746;50.876;4.246;2023-06-14T03:08:57;20.20;71.90
23156;DHT22;11746;50.876;4.246;2023-06-14T03:11:27;20.10;72.10
23156;DHT22;11746;50.876;4.246;2023-06-14T03:13:53;20.00;72.60
23156;DHT22;11746;50.876;4.246;2023-06-14T03:16:19;20.00;72.70
23156;DHT22;11746;50.876;4.246;2023-06-14T03:18:51;20.00;72.80
23156;DHT22;11746;50.876;4.246;2023-06-14T03:21:17;19.90;73.10
23156;DHT22;11746;50.876;4.246;2023-06-14T03:23:44;19.90;73.10
23156;DHT22;11746;50.876;4.246;2023-06-14T03:26:10;19.90;73.20
23156;DHT22;11746;50.876;4.246;2023-06-14T03:28:40;19.90;73.40
23156;DHT22;11746;50.876;4.246;2023-06-14T03:31:06;20.00;73.50
23156;DHT22;11746;50.876;4.246;2023-06-14T03:33:32;20.10;73.10
23156;DHT22;11746;50.876;4.246;2023-06-14T03:35:58;20.10;73.30
23156;DHT22;11746;50.876;4.246;2023-06-14T03:38:24;20.00;73.20
23156;DHT22;11746;50.876;4.246;2023-06-14T03:40:50;20.10;73.20
23156;DHT22;11746;50.876;4.246;2023-06-14T03:43:16;20.10;73.20
23156;DHT22;11746;50.876;4.246;2023-06-14T03:45:42;20.20;72.90
23156;DHT22;11746;50.876;4.246;2023-06-14T03:48:09;20.20;73.00
23156;DHT22;11746;50.876;4.246;2023-06-14T03:50:35;20.10;73.00
23156;DHT22;11746;50.876;4.246;2023-06-14T03:53:04;20.10;73.10
23156;DHT22;11746;50.876;4.246;2023-06-14T03:55:30;20.10;73.00
23156;DHT22;11746;50.876;4.246;2023-06-14T03:57:59;20.30;72.80
23156;DHT22;11746;50.876;4.246;2023-06-14T04:00:27;20.30;72.30
23156;DHT22;11746;50.876;4.246;2023-06-14T04:02:53;20.40;72.30
23156;DHT22;11746;50.876;4.246;2023-06-14T04:05:20;20.50;72.20
23156;DHT22;11746;50.876;4.246;2023-06-14T04:07:46;20.30;72.50
23156;DHT22;11746;50.876;4.246;2023-06-14T04:10:15;20.40;72.40
23156;DHT22;11746;50.876;4.246;2023-06-14T04:12:42;20.40;72.50
23156;DHT22;11746;50.876;4.246;2023-06-14T04:15:09;20.40;72.60
23156;DHT22;11746;50.876;4.246;2023-06-14T04:17:36;20.50;72.70
23156;DHT22;11746;50.876;4.246;2023-06-14T04:20:02;20.40;72.50
23156;DHT22;11746;50.876;4.246;2023-06-14T04:22:31;20.20;73.20
23156;DHT22;11746;50.876;4.246;2023-06-14T04:24:57;20.20;73.50
23156;DHT22;11746;50.876;4.246;2023-06-14T04:27:23;20.30;73.40
23156;DHT22;11746;50.876;4.246;2023-06-14T04:29:52;20.30;73.80
23156;DHT22;11746;50.876;4.246;2023-06-14T04:32:26;20.30;73.80
23156;DHT22;11746;50.876;4.246;2023-06-14T04:34:55;20.30;73.50
23156;DHT22;11746;50.876;4.246;2023-06-14T04:37:22;20.40;73.70
23156;DHT22;11746;50.876;4.246;2023-06-14T04:39:49;20.30;73.70
23156;DHT22;11746;50.876;4.246;2023-06-14T04:42:16;20.30;74.10
23156;DHT22;11746;50.876;4.246;2023-06-14T04:44:42;20.30;74.20
23156;DHT22;11746;50.876;4.246;2023-06-14T04:47:10;20.40;73.90
23156;DHT22;11746;50.876;4.246;2023-06-14T04:49:38;20.60;73.70
23156;DHT22;11746;50.876;4.246;2023-06-14T04:52:06;20.60;73.60
23156;DHT22;11746;50.876;4.246;2023-06-14T04:54:32;20.60;73.90
23156;DHT22;11746;50.876;4.246;2023-06-14T04:56:59;20.50;74.60
23156;DHT22;11746;50.876;4.246;2023-06-14T04:59:25;20.40;74.60
23156;DHT22;11746;50.876;4.246;2023-06-14T05:01:51;20.30;75.40
23156;DHT22;11746;50.876;4.246;2023-06-14T05:04:19;20.40;75.30
23156;DHT22;11746;50.876;4.246;2023-06-14T05:06:45;20.40;75.10
23156;DHT22;11746;50.876;4.246;2023-06-14T05:09:14;20.40;75.30
23156;DHT22;11746;50.876;4.246;2023-06-14T05:11:41;20.30;76.00
23156;DHT22;11746;50.876;4.246;2023-06-14T05:14:13;20.40;76.10
23156;DHT22;11746;50.876;4.246;2023-06-14T05:16:42;20.40;76.00
23156;DHT22;11746;50.876;4.246;2023-06-14T05:19:08;20.30;76.40
23156;DHT22;11746;50.876;4.246;2023-06-14T05:21:36;20.40;76.40
23156;DHT22;11746;50.876;4.246;2023-06-14T05:24:03;20.40;76.30
23156;DHT22;11746;50.876;4.246;2023-06-14T05:26:29;20.50;76.30
23156;DHT22;11746;50.876;4.246;2023-06-14T05:28:58;20.70;76.20
23156;DHT22;11746;50.876;4.246;2023-06-14T05:31:26;20.70;75.40
23156;DHT22;11746;50.876;4.246;2023-06-14T05:33:53;20.80;75.30
23156;DHT22;11746;50.876;4.246;2023-06-14T05:36:20;21.10;74.30
23156;DHT22;11746;50.876;4.246;2023-06-14T05:38:49;21.00;73.70
23156;DHT22;11746;50.876;4.246;2023-06-14T05:41:16;21.10;73.70
23156;DHT22;11746;50.876;4.246;2023-06-14T05:43:42;21.10;74.00
23156;DHT22;11746;50.876;4.246;2023-06-14T05:46:08;21.20;75.00
23156;DHT22;11746;50.876;4.246;2023-06-14T05:48:34;21.40;74.60
23156;DHT22;11746;50.876;4.246;2023-06-14T05:51:00;21.50;73.70
23156;DHT22;11746;50.876;4.246;2023-06-14T05:53:26;21.50;72.70
23156;DHT22;11746;50.876;4.246;2023-06-14T05:55:52;21.60;71.50
23156;DHT22;11746;50.876;4.246;2023-06-14T05:58:20;21.60;71.70
23156;DHT22;11746;50.876;4.246;2023-06-14T06:00:46;21.70;72.10
23156;DHT22;11746;50.876;4.246;2023-06-14T06:03:12;21.70;71.20
23156;DHT22;11746;50.876;4.246;2023-06-14T06:05:39;21.80;70.70
23156;DHT22;11746;50.876;4.246;2023-06-14T06:08:05;22.00;70.60
23156;DHT22;11746;50.876;4.246;2023-06-14T06:10:31;22.00;70.60
23156;DHT22;11746;50.876;4.246;2023-06-14T06:12:57;22.00;70.40
23156;DHT22;11746;50.876;4.246;2023-06-14T06:15:23;22.20;69.50
23156;DHT22;11746;50.876;4.246;2023-06-14T06:17:49;22.20;68.40
23156;DHT22;11746;50.876;4.246;2023-06-14T06:20:16;22.20;68.70
23156;DHT22;11746;50.876;4.246;2023-06-14T06:22:43;22.30;68.90
23156;DHT22;11746;50.876;4.246;2023-06-14T06:25:10;22.40;68.60
23156;DHT22;11746;50.876;4.246;2023-06-14T06:27:36;22.40;68.40
23156;DHT22;11746;50.876;4.246;2023-06-14T06:30:03;22.50;68.30
23156;DHT22;11746;50.876;4.246;2023-06-14T06:32:29;22.70;68.20
23156;DHT22;11746;50.876;4.246;2023-06-14T06:34:55;22.80;67.30
23156;DHT22;11746;50.876;4.246;2023-06-14T06:37:21;23.00;66.40
23156;DHT22;11746;50.876;4.246;2023-06-14T06:39:47;23.00;65.90
23156;DHT22;11746;50.876;4.246;2023-06-14T06:42:13;23.00;65.60
23156;DHT22;11746;50.876;4.246;2023-06-14T06:44:39;23.20;66.00
23156;DHT22;11746;50.876;4.246;2023-06-14T06:47:05;23.30;66.20
23156;DHT22;11746;50.876;4.246;2023-06-14T06:49:31;23.20;65.80
23156;DHT22;11746;50.876;4.246;2023-06-14T06:52:05;23.10;65.40
23156;DHT22;11746;50.876;4.246;2023-06-14T06:54:32;23.30;66.20
23156;DHT22;11746;50.876;4.246;2023-06-14T06:56:58;23.50;65.80
23156;DHT22;11746;50.876;4.246;2023-06-14T06:59:25;23.80;64.40
23156;DHT22;11746;50.876;4.246;2023-06-14T07:01:51;24.00;63.80
23156;DHT22;11746;50.876;4.246;2023-06-14T07:04:16;24.10;63.90
23156;DHT22;11746;50.876;4.246;2023-06-14T07:06:42;24.10;63.70
23156;DHT22;11746;50.876;4.246;2023-06-14T07:09:08;24.10;63.30
23156;DHT22;11746;50.876;4.246;2023-06-14T07:11:42;23.90;62.30
23156;DHT22;11746;50.876;4.246;2023-06-14T07:14:08;23.90;63.30
23156;DHT22;11746;50.876;4.246;2023-06-14T07:16:34;24.10;62.40
23156;DHT22;11746;50.876;4.246;2023-06-14T07:19:02;24.40;62.20
23156;DHT22;11746;50.876;4.246;2023-06-14T07:21:28;24.50;61.90
23156;DHT22;11746;50.876;4.246;2023-06-14T07:23:54;24.60;61.50
23156;DHT22;11746;50.876;4.246;2023-06-14T07:26:20;24.60;61.90
23156;DHT22;11746;50.876;4.246;2023-06-14T07:28:47;24.50;62.20
23156;DHT22;11746;50.876;4.246;2023-06-14T07:31:14;24.50;61.90
23156;DHT22;11746;50.876;4.246;2023-06-14T07:33:41;24.40;61.80
23156;DHT22;11746;50.876;4.246;2023-06-14T07:36:07;24.50;62.20
23156;DHT22;11746;50.876;4.246;2023-06-14T07:38:33;24.60;61.20
23156;DHT22;11746;50.876;4.246;2023-06-14T07:41:00;24.60;61.70
23156;DHT22;11746;50.876;4.246;2023-06-14T07:43:26;24.80;61.10
23156;DHT22;11746;50.876;4.246;2023-06-14T07:45:52;24.80;61.40
23156;DHT22;11746;50.876;4.246;2023-06-14T07:48:18;24.90;59.80
23156;DHT22;11746;50.876;4.246;2023-06-14T07:50:44;25.00;61.20
23156;DHT22;11746;50.876;4.246;2023-06-14T07:53:10;24.90;62.60
23156;DHT22;11746;50.876;4.246;2023-06-14T07:55:36;24.70;63.50
23156;DHT22;11746;50.876;4.246;2023-06-14T07:58:06;24.80;62.20
23156;DHT22;11746;50.876;4.246;2023-06-14T08:00:32;24.90;62.70
23156;DHT22;11746;50.876;4.246;2023-06-14T08:02:58;24.80;62.10
23156;DHT22;11746;50.876;4.246;2023-06-14T08:05:28;24.90;62.40
23156;DHT22;11746;50.876;4.246;2023-06-14T08:07:54;25.00;60.20
23156;DHT22;11746;50.876;4.246;2023-06-14T08:10:21;25.20;60.20
23156;DHT22;11746;50.876;4.246;2023-06-14T08:12:47;25.10;59.70
23156;DHT22;11746;50.876;4.246;2023-06-14T08:15:17;25.20;60.00
23156;DHT22;11746;50.876;4.246;2023-06-14T08:17:43;25.40;60.30
23156;DHT22;11746;50.876;4.246;2023-06-14T08:20:11;25.40;61.60
23156;DHT22;11746;50.876;4.246;2023-06-14T08:22:37;25.30;62.30
23156;DHT22;11746;50.876;4.246;2023-06-14T08:25:04;25.20;62.70
23156;DHT22;11746;50.876;4.246;2023-06-14T08:27:30;25.30;61.90
23156;DHT22;11746;50.876;4.246;2023-06-14T08:29:56;25.40;61.90
23156;DHT22;11746;50.876;4.246;2023-06-14T08:32:22;25.40;61.70
23156;DHT22;11746;50.876;4.246;2023-06-14T08:34:48;25.60;61.20
23156;DHT22;11746;50.876;4.246;2023-06-14T08:37:14;25.60;59.50
23156;DHT22;11746;50.876;4.246;2023-06-14T08:39:40;25.60;59.60
23156;DHT22;11746;50.876;4.246;2023-06-14T08:42:07;25.60;59.60
23156;DHT22;11746;50.876;4.246;2023-06-14T08:44:34;25.70;60.00
23156;DHT22;11746;50.876;4.246;2023-06-14T08:47:00;25.80;59.10
23156;DHT22;11746;50.876;4.246;2023-06-14T08:49:29;25.70;58.80
23156;DHT22;11746;50.876;4.246;2023-06-14T08:52:00;25.90;58.20
23156;DHT22;11746;50.876;4.246;2023-06-14T08:54:32;26.00;58.60
23156;DHT22;11746;50.876;4.246;2023-06-14T08:57:01;26.20;58.60
23156;DHT22;11746;50.876;4.246;2023-06-14T08:59:28;26.30;58.10
23156;DHT22;11746;50.876;4.246;2023-06-14T09:01:54;26.30;58.20
23156;DHT22;11746;50.876;4.246;2023-06-14T09:04:21;26.40;58.90
23156;DHT22;11746;50.876;4.246;2023-06-14T09:06:55;26.50;59.00
23156;DHT22;11746;50.876;4.246;2023-06-14T09:09:22;26.70;58.00
23156;DHT22;11746;50.876;4.246;2023-06-14T09:11:54;26.70;58.40
23156;DHT22;11746;50.876;4.246;2023-06-14T09:14:23;26.70;58.30
23156;DHT22;11746;50.876;4.246;2023-06-14T09:16:52;26.50;58.60
23156;DHT22;11746;50.876;4.246;2023-06-14T09:19:25;26.50;59.70
23156;DHT22;11746;50.876;4.246;2023-06-14T09:21:51;26.60;59.00
23156;DHT22;11746;50.876;4.246;2023-06-14T09:24:18;26.70;59.30
23156;DHT22;11746;50.876;4.246;2023-06-14T09:26:47;26.70;59.50
23156;DHT22;11746;50.876;4.246;2023-06-14T09:29:13;26.80;58.40
23156;DHT22;11746;50.876;4.246;2023-06-14T09:31:39;26.80;58.40
23156;DHT22;11746;50.876;4.246;2023-06-14T09:34:05;27.00;57.10
23156;DHT22;11746;50.876;4.246;2023-06-14T09:36:32;27.00;57.70
23156;DHT22;11746;50.876;4.246;2023-06-14T09:39:00;27.10;58.20
23156;DHT22;11746;50.876;4.246;2023-06-14T09:41:38;27.10;56.70
23156;DHT22;11746;50.876;4.246;2023-06-14T09:44:09;27.10;57.40
23156;DHT22;11746;50.876;4.246;2023-06-14T09:46:36;27.10;57.80
23156;DHT22;11746;50.876;4.246;2023-06-14T09:49:03;27.20;57.70
23156;DHT22;11746;50.876;4.246;2023-06-14T09:51:30;27.20;58.40
23156;DHT22;11746;50.876;4.246;2023-06-14T09:54:03;27.30;57.90
23156;DHT22;11746;50.876;4.246;2023-06-14T09:56:35;27.20;57.70
23156;DHT22;11746;50.876;4.246;2023-06-14T09:59:05;27.10;58.10
23156;DHT22;11746;50.876;4.246;2023-06-14T10:01:33;27.10;57.80
23156;DHT22;11746;50.876;4.246;2023-06-14T10:04:05;26.80;57.50
23156;DHT22;11746;50.876;4.246;2023-06-14T10:06:35;26.90;57.80
23156;DHT22;11746;50.876;4.246;2023-06-14T10:09:04;27.20;57.20
23156;DHT22;11746;50.876;4.246;2023-06-14T10:11:31;27.30;57.20
23156;DHT22;11746;50.876;4.246;2023-06-14T10:13:58;27.50;57.00
23156;DHT22;11746;50.876;4.246;2023-06-14T10:16:32;27.70;57.00
23156;DHT22;11746;50.876;4.246;2023-06-14T10:19:18;27.60;56.80
23156;DHT22;11746;50.876;4.246;2023-06-14T10:21:49;27.30;57.50
23156;DHT22;11746;50.876;4.246;2023-06-14T10:24:20;27.50;57.80
23156;DHT22;11746;50.876;4.246;2023-06-14T10:26:52;27.50;56.40
23156;DHT22;11746;50.876;4.246;2023-06-14T10:29:18;27.50;55.70
23156;DHT22;11746;50.876;4.246;2023-06-14T10:31:49;27.60;55.70
23156;DHT22;11746;50.876;4.246;2023-06-14T10:34:25;27.80;55.90
23156;DHT22;11746;50.876;4.246;2023-06-14T10:37:06;27.90;55.20
23156;DHT22;11746;50.876;4.246;2023-06-14T10:39:40;28.10;55.50
23156;DHT22;11746;50.876;4.246;2023-06-14T10:42:06;28.00;54.90
23156;DHT22;11746;50.876;4.246;2023-06-14T10:44:50;27.90;54.90
23156;DHT22;11746;50.876;4.246;2023-06-14T10:47:35;28.00;54.60
23156;DHT22;11746;50.876;4.246;2023-06-14T10:50:10;28.10;54.70
23156;DHT22;11746;50.876;4.246;2023-06-14T10:52:43;28.40;54.10
23156;DHT22;11746;50.876;4.246;2023-06-14T10:55:16;28.60;52.60
23156;DHT22;11746;50.876;4.246;2023-06-14T10:57:48;28.80;53.00
23156;DHT22;11746;50.876;4.246;2023-06-14T11:00:22;29.00;52.60
23156;DHT22;11746;50.876;4.246;2023-06-14T11:11:16;29.50;51.30
23156;DHT22;11746;50.876;4.246;2023-06-14T11:13:45;29.50;51.60
23156;DHT22;11746;50.876;4.246;2023-06-14T11:16:15;29.60;50.80
23156;DHT22;11746;50.876;4.246;2023-06-14T11:18:42;29.50;50.70
23156;DHT22;11746;50.876;4.246;2023-06-14T11:21:09;29.80;51.10
23156;DHT22;11746;50.876;4.246;2023-06-14T11:23:36;29.80;50.90
23156;DHT22;11746;50.876;4.246;2023-06-14T11:26:02;29.60;50.00
23156;DHT22;11746;50.876;4.246;2023-06-14T11:28:38;29.70;51.00
23156;DHT22;11746;50.876;4.246;2023-06-14T11:31:04;29.70;51.40
23156;DHT22;11746;50.876;4.246;2023-06-14T11:33:30;29.80;50.70
23156;DHT22;11746;50.876;4.246;2023-06-14T11:35:56;29.80;50.30
23156;DHT22;11746;50.876;4.246;2023-06-14T11:38:21;29.70;50.50
23156;DHT22;11746;50.876;4.246;2023-06-14T11:40:47;29.60;50.80
23156;DHT22;11746;50.876;4.246;2023-06-14T11:43:13;29.80;51.30
23156;DHT22;11746;50.876;4.246;2023-06-14T11:45:40;30.00;50.40
23156;DHT22;11746;50.876;4.246;2023-06-14T11:48:06;30.10;49.60
23156;DHT22;11746;50.876;4.246;2023-06-14T11:50:32;30.20;48.70
23156;DHT22;11746;50.876;4.246;2023-06-14T11:53:03;30.20;50.10
23156;DHT22;11746;50.876;4.246;2023-06-14T11:55:39;30.30;50.10
23156;DHT22;11746;50.876;4.246;2023-06-14T11:58:06;30.30;49.90
23156;DHT22;11746;50.876;4.246;2023-06-14T12:00:32;30.50;49.20
23156;DHT22;11746;50.876;4.246;2023-06-14T12:03:00;30.30;49.50
23156;DHT22;11746;50.876;4.246;2023-06-14T12:05:27;30.30;49.70
23156;DHT22;11746;50.876;4.246;2023-06-14T12:08:03;30.20;49.90
23156;DHT22;11746;50.876;4.246;2023-06-14T12:10:40;30.20;49.10
23156;DHT22;11746;50.876;4.246;2023-06-14T12:13:07;30.20;48.60
23156;DHT22;11746;50.876;4.246;2023-06-14T12:15:35;30.40;48.30
23156;DHT22;11746;50.876;4.246;2023-06-14T12:18:01;30.60;49.00
23156;DHT22;11746;50.876;4.246;2023-06-14T12:20:32;30.30;48.70
23156;DHT22;11746;50.876;4.246;2023-06-14T12:23:03;30.30;49.10
23156;DHT22;11746;50.876;4.246;2023-06-14T12:25:34;30.50;49.00
23156;DHT22;11746;50.876;4.246;2023-06-14T12:28:08;30.60;49.30
23156;DHT22;11746;50.876;4.246;2023-06-14T12:30:37;30.80;49.00
23156;DHT22;11746;50.876;4.246;2023-06-14T12:33:04;30.70;48.50
23156;DHT22;11746;50.876;4.246;2023-06-14T12:35:31;30.70;49.20
23156;DHT22;11746;50.876;4.246;2023-06-14T12:37:57;30.60;48.30
23156;DHT22;11746;50.876;4.246;2023-06-14T12:40:23;30.40;49.80
23156;DHT22;11746;50.876;4.246;2023-06-14T12:42:49;30.40;48.90
23156;DHT22;11746;50.876;4.246;2023-06-14T12:45:15;30.80;49.00
23156;DHT22;11746;50.876;4.246;2023-06-14T12:47:44;31.10;48.80
23156;DHT22;11746;50.876;4.246;2023-06-14T12:50:10;31.20;47.90
23156;DHT22;11746;50.876;4.246;2023-06-14T12:52:36;31.10;48.00
23156;DHT22;11746;50.876;4.246;2023-06-14T12:55:06;31.20;48.80
23156;DHT22;11746;50.876;4.246;2023-06-14T12:57:32;31.40;47.60
23156;DHT22;11746;50.876;4.246;2023-06-14T13:00:00;31.40;46.50
23156;DHT22;11746;50.876;4.246;2023-06-14T13:02:26;31.20;47.50
23156;DHT22;11746;50.876;4.246;2023-06-14T13:04:52;31.20;47.10
23156;DHT22;11746;50.876;4.246;2023-06-14T13:07:18;31.40;47.80
23156;DHT22;11746;50.876;4.246;2023-06-14T13:09:44;31.20;47.20
23156;DHT22;11746;50.876;4.246;2023-06-14T13:12:11;31.20;47.60
23156;DHT22;11746;50.876;4.246;2023-06-14T13:14:38;31.20;48.20
23156;DHT22;11746;50.876;4.246;2023-06-14T13:17:10;31.20;48.20
23156;DHT22;11746;50.876;4.246;2023-06-14T13:19:36;31.60;48.60
23156;DHT22;11746;50.876;4.246;2023-06-14T13:22:02;32.00;47.60
23156;DHT22;11746;50.876;4.246;2023-06-14T13:24:29;32.00;46.70
23156;DHT22;11746;50.876;4.246;2023-06-14T13:26:56;31.90;47.60
23156;DHT22;11746;50.876;4.246;2023-06-14T13:29:23;31.90;47.20
23156;DHT22;11746;50.876;4.246;2023-06-14T13:31:49;32.00;46.70
23156;DHT22;11746;50.876;4.246;2023-06-14T13:34:15;32.20;46.90
23156;DHT22;11746;50.876;4.246;2023-06-14T13:36:41;32.30;47.30
23156;DHT22;11746;50.876;4.246;2023-06-14T13:39:07;32.60;46.60
23156;DHT22;11746;50.876;4.246;2023-06-14T13:41:33;32.30;46.50
23156;DHT22;11746;50.876;4.246;2023-06-14T13:44:01;32.30;46.80
23156;DHT22;11746;50.876;4.246;2023-06-14T13:46:29;32.40;46.00
23156;DHT22;11746;50.876;4.246;2023-06-14T13:48:55;32.30;46.20
23156;DHT22;11746;50.876;4.246;2023-06-14T13:51:21;31.90;46.10
23156;DHT22;11746;50.876;4.246;2023-06-14T13:53:50;31.80;46.10
23156;DHT22;11746;50.876;4.246;2023-06-14T13:56:17;31.90;46.00
23156;DHT22;11746;50.876;4.246;2023-06-14T13:58:43;32.20;46.60
23156;DHT22;11746;50.876;4.246;2023-06-14T14:01:10;32.00;46.90
23156;DHT22;11746;50.876;4.246;2023-06-14T14:03:37;32.10;46.40
23156;DHT22;11746;50.876;4.246;2023-06-14T14:06:04;32.20;45.90
23156;DHT22;11746;50.876;4.246;2023-06-14T14:08:31;32.20;46.20
23156;DHT22;11746;50.876;4.246;2023-06-14T14:10:57;31.90;45.70
23156;DHT22;11746;50.876;4.246;2023-06-14T14:13:23;32.00;46.20
23156;DHT22;11746;50.876;4.246;2023-06-14T14:15:49;32.20;45.40
23156;DHT22;11746;50.876;4.246;2023-06-14T14:18:15;32.30;46.00
23156;DHT22;11746;50.876;4.246;2023-06-14T14:20:41;32.40;45.60
23156;DHT22;11746;50.876;4.246;2023-06-14T14:23:07;32.50;45.20
23156;DHT22;11746;50.876;4.246;2023-06-14T14:25:33;32.20;45.10
23156;DHT22;11746;50.876;4.246;2023-06-14T14:27:59;32.30;45.50
23156;DHT22;11746;50.876;4.246;2023-06-14T14:30:26;32.40;45.00
23156;DHT22;11746;50.876;4.246;2023-06-14T14:32:53;32.50;44.70
23156;DHT22;11746;50.876;4.246;2023-06-14T14:35:19;32.70;44.50
23156;DHT22;11746;50.876;4.246;2023-06-14T14:37:45;32.80;44.70
23156;DHT22;11746;50.876;4.246;2023-06-14T14:40:11;32.90;44.20
23156;DHT22;11746;50.876;4.246;2023-06-14T14:42:37;32.70;43.90
23156;DHT22;11746;50.876;4.246;2023-06-14T14:45:04;32.50;43.80
23156;DHT22;11746;50.876;4.246;2023-06-14T14:47:30;32.50;43.50
23156;DHT22;11746;50.876;4.246;2023-06-14T14:49:56;32.60;43.40
23156;DHT22;11746;50.876;4.246;2023-06-14T14:52:21;33.10;43.90
23156;DHT22;11746;50.876;4.246;2023-06-14T14:54:47;33.10;42.60
23156;DHT22;11746;50.876;4.246;2023-06-14T14:57:13;33.50;43.80
23156;DHT22;11746;50.876;4.246;2023-06-14T14:59:39;33.70;42.20
23156;DHT22;11746;50.876;4.246;2023-06-14T15:02:05;33.70;42.30
23156;DHT22;11746;50.876;4.246;2023-06-14T15:04:31;34.00;43.30
23156;DHT22;11746;50.876;4.246;2023-06-14T15:06:57;33.90;42.60
23156;DHT22;11746;50.876;4.246;2023-06-14T15:09:23;33.80;42.40
23156;DHT22;11746;50.876;4.246;2023-06-14T15:11:49;34.00;42.40
23156;DHT22;11746;50.876;4.246;2023-06-14T15:14:15;33.80;42.30
23156;DHT22;11746;50.876;4.246;2023-06-14T15:16:41;33.30;42.70
23156;DHT22;11746;50.876;4.246;2023-06-14T15:19:07;33.30;42.30
23156;DHT22;11746;50.876;4.246;2023-06-14T15:21:33;33.20;42.40
23156;DHT22;11746;50.876;4.246;2023-06-14T15:23:59;33.50;42.60
23156;DHT22;11746;50.876;4.246;2023-06-14T15:26:25;33.80;42.10
23156;DHT22;11746;50.876;4.246;2023-06-14T15:28:51;34.00;42.20
23156;DHT22;11746;50.876;4.246;2023-06-14T15:31:17;34.30;42.10
23156;DHT22;11746;50.876;4.246;2023-06-14T15:33:43;34.70;41.80
23156;DHT22;11746;50.876;4.246;2023-06-14T15:36:10;34.70;41.90
23156;DHT22;11746;50.876;4.246;2023-06-14T15:38:36;34.70;41.30
23156;DHT22;11746;50.876;4.246;2023-06-14T15:41:02;34.60;41.30